Details From LEAM - Almeria
To LEGR - Granada
Flight Number -
Tags decoded
Created
Modified
Stats Distance 71 nm / 131 km
Max Altitude 0 ft / 0 m
Waypoints 2
Social Downloads 0
Likes 0
Share VATSIM

Download

Looking for another format? Having issues loading an existing format? Contact us
Advertisement - Login to hide

Notes

Requested: LEAM 37.00858439769946 -2.6987914928138292 36.966900841041664 -3.0421142467417615 36.88346522663628 -3.4183959850467422 37.015163923696896 -3.6340026745134844 LEGR Unmatched points: 37.00858439769946 -2.6987914928138292 36.966900841041664 -3.0421142467417615 36.88346522663628 -3.4183959850467422 37.015163923696896 -3.6340026745134844

Route

LEAM LEGR

ID Type Via Altitude Latitude Longitude Leg Dist Tot Dist Heading (true) Name
O LEAM APT - 0 ft / 0 m 36.84393˚ -2.37010˚ - 0 nm - Almeria
O LEGR APT - 0 ft / 0 m 37.18873˚ -3.77736˚ 70 nm 70 nm 287° / 287° Granada

Altitude Profile

Advertisement - Login to hide

LEAM

Details ICAO LEAM (LEI)
Name Almeria
Region Spain
Timezone Unknown (UTC+0.0)
Stats Elevation 70 ft / 21 m (AMSL)
Location 36.843935° -2.370097°
Runways 1
Magnetic Variation 0.239° W

METAR

LEAM 231530Z 07020KT 040V100 CAVOK 30/05 Q1012

Decode

TAF

TAF LEAM 231400Z 2315/2415 08016KT 9999 FEW030 TX30/2315Z TN18/2404Z TEMPO 2315/2320 08018G28KT BECMG 2321/2324 36009KT PROB40 TEMPO 2400/2407 36015G25KT BECMG 2407/2410 07018KT TEMPO 2409/2414 07020G30KT PROB40 TEMPO 2410/2413 07024G40KT

Decode

Departure Runways

ID Width Length Bearing (true) Bearing (mag) Surface Threshold Offset Overrun Length
08 148 ft / 45 m 10,484 ft / 3,196 m 72.94° 73.18° Asphalt 492 ft / 150 m 191 ft / 58 m
26 148 ft / 45 m 10,484 ft / 3,196 m 252.96° 253.20° Asphalt 0 ft / 0 m 150 ft / 46 m

LEGR

Details ICAO LEGR (GRX)
Name Granada
Region Spain
Timezone Europe/Madrid (UTC+2.0)
Stats Elevation 1,859 ft / 567 m (AMSL)
Location 37.188731° -3.777359°
Runways 1
Magnetic Variation 0.627° W

METAR

LEGR 231530Z 00000KT 9999 FEW100 24/12 Q1015

Decode

TAF

TAF LEGR 231400Z 2315/2415 VRB02KT 9999 SCT060 TX27/2415Z TN12/2405Z PROB40 TEMPO 2400/2406 4000 SHRA SCT040CB BECMG 2410/2413 21010KT

Decode

Destination Runways

ID Width Length Bearing (true) Bearing (mag) Surface Threshold Offset Overrun Length
09 147 ft / 45 m 9,511 ft / 2,899 m 89.46° 90.09° Asphalt 0 ft / 0 m 0 ft / 0 m
27 147 ft / 45 m 9,511 ft / 2,899 m 269.48° 270.11° Asphalt 0 ft / 0 m 0 ft / 0 m

Approach Navaids

Runway Type Ident Frequency Range Bearing (true) Bearing (mag) Slope Elevation
09 Localiser GRD 109.30 MHz 18 nm / 33 km 89.49° 90.11° - 1,859 ft / 567 m (AMSL)
09 Glidescope GRD 109.30 MHz 10 nm / 19 km 89.47° 90.10° 3.00° 1,859 ft / 567 m (AMSL)

Popular Alternatives